Time;durP1;ratioP1;P1;durP2;ratioP2;P2;SDS_P1;SDS_P2;PMS_P1;PMS_P2;Temp;Humidity;BMP_temperature;BMP_pressure;BME280_temperature;BME280_humidity;BME280_pressure;Samples;Min_cycle;Max_cycle;Signal;HPM_P1;HPM_P2
2023/05/01 00:00:03;;;;;;;13.17;7.60;;;;;;;13.86;55.51;98720.16;6948196;28;20298;-85
2023/05/01 00:03:24;;;;;;;7.70;6.90;;;;;;;14.20;55.26;98724.09;6948609;28;20226;-84
2023/05/01 00:06:46;;;;;;;9.83;6.00;;;;;;;14.34;54.59;98712.03;6948149;28;20381;-84
2023/05/01 00:10:08;;;;;;;6.50;5.83;;;;;;;14.17;54.27;98694.72;6948856;28;20345;-84
2023/05/01 00:13:30;;;;;;;6.57;5.63;;;;;;;14.25;54.64;98710.69;6948186;28;20742;-84
2023/05/01 00:16:52;;;;;;;6.80;6.10;;;;;;;14.42;54.17;98712.53;6948660;28;20239;-84
2023/05/01 00:20:15;;;;;;;6.17;5.57;;;;;;;14.41;54.10;98701.91;6949088;28;20199;-84
2023/05/01 00:23:36;;;;;;;7.90;5.60;;;;;;;13.94;54.67;98697.31;6948700;28;20235;-84
2023/05/01 00:26:58;;;;;;;6.80;6.20;;;;;;;13.80;55.74;98699.38;6949493;28;20693;-84
2023/05/01 00:30:19;;;;;;;7.50;6.30;;;;;;;13.72;55.24;98690.72;6949556;28;20200;-85
2023/05/01 00:33:42;;;;;;;6.43;5.87;;;;;;;13.87;55.88;98683.03;6949495;28;20352;-84
2023/05/01 00:37:04;;;;;;;5.87;5.37;;;;;;;14.06;55.19;98679.22;6949275;28;20242;-84
2023/05/01 00:40:25;;;;;;;6.43;5.83;;;;;;;13.99;54.87;98659.53;6949118;28;20320;-85
2023/05/01 00:43:47;;;;;;;7.83;5.77;;;;;;;14.12;54.79;98678.31;6953513;28;20232;-84
2023/05/01 00:47:08;;;;;;;7.23;5.80;;;;;;;13.42;55.52;98624.84;6956364;28;20211;-85
2023/05/01 00:50:32;;;;;;;6.97;6.27;;;;;;;13.02;57.03;98596.59;6955057;28;20345;-86
2023/05/01 00:53:54;;;;;;;7.53;6.10;;;;;;;13.50;56.40;98640.78;6956505;28;20708;-84
2023/05/01 00:57:16;;;;;;;6.20;5.60;;;;;;;13.98;55.92;98647.84;6955592;28;20203;-87
2023/05/01 01:00:37;;;;;;;6.47;5.87;;;;;;;13.93;55.99;98655.84;6954529;28;20200;-84
2023/05/01 01:03:59;;;;;;;6.37;5.87;;;;;;;13.66;56.20;98651.84;6961260;28;20238;-85
2023/05/01 01:07:27;;;;;;;6.93;6.33;;;;;;;13.67;56.33;98647.22;6966639;28;20301;-85
2023/05/01 01:10:53;;;;;;;10.93;5.87;;;;;;;13.48;56.73;98654.56;6959394;28;20293;-85
2023/05/01 01:14:19;;;;;;;8.17;5.57;;;;;;;13.47;57.17;98647.50;6965363;28;20231;-85
2023/05/01 01:17:45;;;;;;;6.33;5.67;;;;;;;13.48;57.02;98646.44;6956759;28;20233;-87
2023/05/01 01:21:12;;;;;;;7.17;5.63;;;;;;;13.39;56.96;98611.78;6951018;28;20259;-85
2023/05/01 01:24:48;;;;;;;6.43;5.70;;;;;;;13.77;56.11;98629.41;6950096;28;20268;-85
2023/05/01 01:28:39;;;;;;;9.03;5.63;;;;;;;13.84;55.67;98638.25;6977064;28;20211;-85
2023/05/01 01:32:09;;;;;;;6.70;5.97;;;;;;;13.89;55.56;98632.97;6998686;28;20214;-84
2023/05/01 01:35:34;;;;;;;6.77;6.17;;;;;;;13.47;56.73;98635.84;6984987;28;20879;-84
2023/05/01 01:39:01;;;;;;;6.57;5.97;;;;;;;13.52;57.21;98633.28;6981686;28;20267;-85
2023/05/01 01:42:26;;;;;;;6.40;5.67;;;;;;;13.51;56.04;98562.00;6980624;28;20213;-85
2023/05/01 01:45:51;;;;;;;7.03;5.23;;;;;;;13.97;55.09;98629.94;6980202;28;20234;-85
2023/05/01 01:49:16;;;;;;;6.60;6.00;;;;;;;13.64;55.73;98634.97;6979577;28;20249;-85
2023/05/01 01:52:40;;;;;;;9.10;6.47;;;;;;;13.76;55.38;98621.50;6977915;28;20699;-85
2023/05/01 01:56:05;;;;;;;6.63;5.70;;;;;;;13.78;55.92;98633.75;6978341;28;20333;-86
2023/05/01 01:59:26;;;;;;;6.13;5.50;;;;;;;13.53;56.70;98626.81;6978150;28;20206;-85
2023/05/01 02:02:48;;;;;;;7.77;6.37;;;;;;;13.56;57.05;98629.88;6977416;28;21081;-85
2023/05/01 02:06:11;;;;;;;9.77;6.37;;;;;;;13.53;57.15;98624.94;6978231;28;20311;-84
2023/05/01 02:09:34;;;;;;;6.77;6.17;;;;;;;13.33;57.08;98588.31;6977526;28;20736;-85
2023/05/01 02:12:58;;;;;;;9.43;6.77;;;;;;;13.40;57.38;98600.69;6977045;28;20213;-85
2023/05/01 02:16:20;;;;;;;6.90;6.00;;;;;;;13.32;57.61;98619.97;6976751;28;20230;-85
2023/05/01 02:19:43;;;;;;;6.83;6.23;;;;;;;13.33;57.59;98609.97;6976478;28;20199;-85
2023/05/01 02:23:06;;;;;;;8.20;6.07;;;;;;;13.54;57.43;98604.06;6976312;28;20214;-87
2023/05/01 02:26:29;;;;;;;6.60;6.00;;;;;;;13.39;57.25;98585.50;6976369;28;20227;-85
2023/05/01 02:29:52;;;;;;;8.40;5.80;;;;;;;13.34;57.18;98581.84;6976490;28;20198;-88
2023/05/01 02:33:13;;;;;;;7.50;6.57;;;;;;;13.85;56.77;98593.84;6976035;28;20229;-85
2023/05/01 02:36:35;;;;;;;7.17;6.30;;;;;;;14.00;56.10;98596.94;6976196;28;20308;-85
2023/05/01 02:39:56;;;;;;;6.07;5.57;;;;;;;14.23;55.27;98585.34;6976061;28;20289;-85
2023/05/01 02:43:21;;;;;;;6.10;5.53;;;;;;;14.11;55.45;98588.00;6975448;28;20292;-85
2023/05/01 02:46:45;;;;;;;6.10;5.50;;;;;;;14.39;54.59;98587.38;6975947;28;20619;-85
2023/05/01 02:50:07;;;;;;;9.53;6.00;;;;;;;14.25;54.75;98580.50;6975786;28;20291;-85
2023/05/01 02:53:30;;;;;;;6.90;6.17;;;;;;;14.09;55.24;98578.47;6975367;28;20586;-85
2023/05/01 02:56:52;;;;;;;6.90;6.20;;;;;;;13.96;55.63;98578.66;6975531;28;20311;-85
2023/05/01 03:00:15;;;;;;;8.80;6.07;;;;;;;13.75;55.55;98554.81;6975700;28;20210;-86
2023/05/01 03:03:37;;;;;;;9.10;5.80;;;;;;;14.02;55.45;98556.03;6974698;28;20226;-86
2023/05/01 03:06:58;;;;;;;6.47;5.87;;;;;;;13.90;55.27;98518.09;6975037;28;20546;-85
2023/05/01 03:10:20;;;;;;;7.20;6.27;;;;;;;13.22;55.97;98465.34;6975276;28;20760;-85
2023/05/01 03:13:42;;;;;;;6.87;6.27;;;;;;;13.92;56.00;98582.91;6974631;28;20280;-85
2023/05/01 03:17:05;;;;;;;7.30;6.03;;;;;;;13.26;55.96;98463.00;6974821;28;20202;-85
2023/05/01 03:20:27;;;;;;;7.93;7.13;;;;;;;13.73;57.11;98575.88;6974882;28;20207;-85
2023/05/01 03:23:49;;;;;;;8.07;6.83;;;;;;;13.94;56.32;98549.09;6974722;28;20605;-86
2023/05/01 03:27:10;;;;;;;6.70;6.10;;;;;;;13.57;57.53;98573.81;6979604;28;20231;-85
2023/05/01 03:30:34;;;;;;;7.03;6.30;;;;;;;13.69;57.46;98561.16;6977178;28;20209;-85
2023/05/01 03:33:57;;;;;;;7.67;6.87;;;;;;;13.76;57.74;98575.44;6974216;28;20571;-86
2023/05/01 03:37:18;;;;;;;6.83;6.13;;;;;;;13.63;57.53;98562.06;6974587;28;20206;-85
2023/05/01 03:40:40;;;;;;;6.90;6.30;;;;;;;13.47;58.33;98549.16;6976581;28;20223;-86
2023/05/01 03:44:01;;;;;;;7.27;6.57;;;;;;;13.97;57.15;98566.75;6992312;28;20311;-85
2023/05/01 03:47:23;;;;;;;8.40;7.27;;;;;;;14.07;56.25;98562.44;6976863;28;20210;-85
2023/05/01 03:50:46;;;;;;;7.30;6.60;;;;;;;13.53;56.88;98526.59;6976823;28;20272;-85
2023/05/01 03:54:08;;;;;;;7.50;6.70;;;;;;;13.41;56.91;98476.97;6976668;28;20225;-86
2023/05/01 03:57:29;;;;;;;8.77;6.57;;;;;;;14.04;57.38;98548.53;6977437;28;20261;-85
2023/05/01 04:00:51;;;;;;;6.60;5.93;;;;;;;13.25;56.49;98396.41;6977738;28;20694;-85
2023/05/01 04:04:12;;;;;;;7.37;5.63;;;;;;;13.74;56.30;98469.97;6977099;28;20806;-85
2023/05/01 04:07:35;;;;;;;6.93;6.30;;;;;;;13.26;58.12;98506.34;6978124;28;20194;-85
2023/05/01 04:10:57;;;;;;;9.80;7.77;;;;;;;13.41;58.59;98541.97;7005172;28;20206;-85
2023/05/01 04:14:18;;;;;;;7.47;6.77;;;;;;;13.04;58.22;98454.59;7004977;28;20228;-86
2023/05/01 04:17:42;;;;;;;7.27;6.57;;;;;;;13.99;57.51;98553.81;7007825;28;20224;-85
2023/05/01 04:21:04;;;;;;;7.83;6.70;;;;;;;13.79;56.67;98474.69;7010262;28;20650;-85
2023/05/01 04:24:27;;;;;;;8.50;6.77;;;;;;;13.91;56.08;98538.69;7009585;28;20226;-85
2023/05/01 04:27:48;;;;;;;8.43;6.83;;;;;;;13.63;56.83;98456.44;6995077;28;20291;-85
2023/05/01 04:31:10;;;;;;;6.67;6.10;;;;;;;14.27;56.04;98538.53;6983733;28;20203;-85
2023/05/01 04:34:31;;;;;;;8.43;7.50;;;;;;;13.45;56.11;98438.34;6984537;28;20582;-84
2023/05/01 04:37:53;;;;;;;7.57;6.57;;;;;;;13.65;57.62;98497.63;6983591;28;20678;-85
2023/05/01 04:41:16;;;;;;;8.37;6.90;;;;;;;14.03;57.04;98560.41;6981739;28;20280;-85
2023/05/01 04:44:37;;;;;;;7.77;6.97;;;;;;;14.10;56.91;98526.72;6981249;28;20223;-85
2023/05/01 04:47:59;;;;;;;9.60;7.77;;;;;;;14.20;57.69;98554.09;6981451;28;20210;-85
2023/05/01 04:51:21;;;;;;;10.27;7.90;;;;;;;13.94;57.38;98504.88;6981375;28;20204;-85
2023/05/01 04:54:42;;;;;;;8.60;7.80;;;;;;;14.02;58.02;98534.34;6980354;28;20270;-85
2023/05/01 04:58:05;;;;;;;9.97;7.10;;;;;;;13.87;57.23;98456.22;6980836;28;20300;-85
2023/05/01 05:01:27;;;;;;;7.17;6.50;;;;;;;14.21;57.45;98549.53;6980240;28;20202;-85
2023/05/01 05:04:48;;;;;;;7.50;6.80;;;;;;;13.90;58.32;98526.22;6979719;28;20318;-85
2023/05/01 05:08:10;;;;;;;7.43;6.50;;;;;;;14.44;57.43;98561.19;6980447;28;20700;-85
2023/05/01 05:11:32;;;;;;;7.83;6.77;;;;;;;14.19;56.70;98491.97;6958907;28;20214;-85
2023/05/01 05:14:55;;;;;;;7.37;6.37;;;;;;;14.74;55.60;98540.19;6952138;28;20312;-85
2023/05/01 05:18:17;;;;;;;7.30;6.50;;;;;;;14.60;55.99;98543.38;6952351;28;20294;-85
2023/05/01 05:21:38;;;;;;;7.73;7.03;;;;;;;14.66;56.22;98554.13;6952431;28;20254;-85
2023/05/01 05:25:06;;;;;;;7.33;6.63;;;;;;;14.53;57.10;98556.25;6954369;28;20273;-86
2023/05/01 05:28:28;;;;;;;7.33;6.70;;;;;;;14.80;56.53;98558.22;6995432;28;20217;-85
2023/05/01 05:31:51;;;;;;;7.60;6.90;;;;;;;14.94;56.16;98550.66;7007334;28;20619;-85
2023/05/01 05:35:12;;;;;;;7.77;6.50;;;;;;;14.29;56.54;98471.31;7007826;28;20228;-85
2023/05/01 05:38:34;;;;;;;8.83;6.47;;;;;;;14.39;55.78;98444.44;7009544;28;20194;-86
2023/05/01 05:41:56;;;;;;;7.43;6.27;;;;;;;14.60;55.85;98454.69;6987640;28;20208;-86
2023/05/01 05:45:17;;;;;;;10.90;6.70;;;;;;;15.04;55.42;98527.25;6979980;28;20713;-86
2023/05/01 05:48:40;;;;;;;9.20;7.03;;;;;;;15.00;56.36;98542.41;6980221;28;20685;-86
2023/05/01 05:52:01;;;;;;;8.47;7.30;;;;;;;14.99;56.34;98540.72;6988612;28;20222;-89
2023/05/01 05:55:23;;;;;;;6.77;6.17;;;;;;;15.04;54.42;98527.25;6991050;28;20233;-85
2023/05/01 05:58:44;;;;;;;6.53;5.93;;;;;;;15.14;54.68;98553.78;6981531;28;20347;-85
2023/05/01 06:02:06;;;;;;;6.53;5.93;;;;;;;15.51;54.57;98539.66;6981388;28;20298;-85
2023/05/01 06:05:29;;;;;;;7.80;6.50;;;;;;;15.62;53.86;98538.78;6980612;28;20596;-86
2023/05/01 06:08:51;;;;;;;7.20;6.50;;;;;;;15.55;54.12;98521.81;6979713;28;20290;-86
2023/05/01 06:12:12;;;;;;;6.07;5.57;;;;;;;15.58;53.89;98510.44;6992554;28;20215;-87
2023/05/01 06:15:34;;;;;;;6.73;6.00;;;;;;;15.48;53.84;98499.41;7006553;28;20253;-87
2023/05/01 06:18:55;;;;;;;8.40;5.37;;;;;;;15.58;50.71;98542.22;6984338;28;20272;-87
2023/05/01 06:22:18;;;;;;;5.30;4.80;;;;;;;15.91;47.81;98539.56;6978973;28;20202;-88
2023/05/01 06:25:40;;;;;;;5.33;4.83;;;;;;;15.96;48.91;98517.91;6978258;28;20691;-87
2023/05/01 06:29:01;;;;;;;4.80;4.40;;;;;;;16.26;47.61;98540.16;6977371;28;20207;-87
2023/05/01 06:32:23;;;;;;;12.13;9.33;;;;;;;16.37;48.81;98503.88;6976809;28;20303;-87
2023/05/01 06:35:45;;;;;;;6.80;5.67;;;;;;;16.64;49.91;98532.91;6976891;28;20283;-87
2023/05/01 06:39:07;;;;;;;6.27;5.67;;;;;;;16.69;50.32;98545.78;6976654;28;20627;-87
2023/05/01 06:42:29;;;;;;;6.60;5.90;;;;;;;16.61;51.65;98547.03;6976972;28;20229;-87
2023/05/01 06:45:50;;;;;;;7.03;6.33;;;;;;;16.46;53.03;98554.94;6977535;28;20320;-85
2023/05/01 06:49:12;;;;;;;8.20;7.40;;;;;;;16.55;52.99;98555.34;6960957;28;20216;-87
2023/05/01 06:52:34;;;;;;;8.67;5.97;;;;;;;16.67;52.22;98548.75;6953828;28;20670;-82
2023/05/01 06:55:57;;;;;;;7.20;6.40;;;;;;;16.59;51.85;98565.50;6950488;28;20309;-86
2023/05/01 06:59:18;;;;;;;8.27;6.13;;;;;;;16.61;53.20;98557.06;6950481;28;20210;-84
2023/05/01 07:02:40;;;;;;;8.00;6.90;;;;;;;16.98;52.67;98569.06;6951130;28;20287;-85
2023/05/01 07:06:01;;;;;;;7.20;6.50;;;;;;;16.89;53.00;98562.41;6950254;28;20229;-85
2023/05/01 07:09:23;;;;;;;7.07;6.47;;;;;;;16.84;51.25;98570.50;6950376;28;20294;-84
2023/05/01 07:12:46;;;;;;;6.77;6.17;;;;;;;16.58;52.54;98549.44;6950235;28;20856;-86
2023/05/01 07:16:08;;;;;;;7.93;7.13;;;;;;;16.80;53.42;98564.72;6949656;28;20227;-86
2023/05/01 07:19:29;;;;;;;7.77;7.00;;;;;;;17.03;52.12;98575.41;6949495;28;20243;-88
2023/05/01 07:22:51;;;;;;;8.67;6.73;;;;;;;16.77;52.88;98553.50;6949314;28;20284;-86
2023/05/01 07:26:12;;;;;;;7.67;6.47;;;;;;;17.34;51.79;98587.53;6974254;28;20306;-88
2023/05/01 07:29:35;;;;;;;8.60;7.80;;;;;;;16.46;52.30;98480.66;6981025;28;20575;-87
2023/05/01 07:32:57;;;;;;;8.07;6.57;;;;;;;16.72;51.46;98488.09;6979170;28;20202;-86
2023/05/01 07:36:20;;;;;;;8.43;7.53;;;;;;;17.17;50.95;98551.34;6982889;28;20229;-89
2023/05/01 07:39:42;;;;;;;16.23;11.73;;;;;;;17.09;51.67;98551.75;6978743;28;20318;-88
2023/05/01 07:43:04;;;;;;;10.33;7.90;;;;;;;17.34;51.81;98568.47;6964054;28;20676;-87
2023/05/01 07:46:27;;;;;;;7.43;6.63;;;;;;;17.43;51.81;98556.06;6949707;28;20237;-85
2023/05/01 07:49:48;;;;;;;7.37;6.70;;;;;;;17.53;51.06;98567.91;6949631;28;20689;-85
2023/05/01 07:53:10;;;;;;;6.00;5.50;;;;;;;17.51;50.19;98569.25;6953392;28;20866;-86
2023/05/01 07:56:32;;;;;;;8.00;5.80;;;;;;;17.65;50.34;98568.59;6955872;28;20230;-88
2023/05/01 07:59:54;;;;;;;6.43;5.83;;;;;;;17.31;50.18;98563.50;6955446;28;20619;-88
2023/05/01 08:03:17;;;;;;;6.40;5.80;;;;;;;17.01;50.33;98572.13;6971919;28;20228;-88
2023/05/01 08:06:39;;;;;;;6.63;6.00;;;;;;;17.47;50.19;98533.50;7017374;28;20282;-92
2023/05/01 08:10:00;;;;;;;6.27;5.67;;;;;;;17.80;49.41;98559.75;7011104;28;20649;-88
2023/05/01 08:13:22;;;;;;;6.30;5.77;;;;;;;16.79;50.85;98546.75;7010504;28;20243;-89
2023/05/01 08:16:44;;;;;;;6.13;5.53;;;;;;;17.44;49.49;98553.06;7010840;28;20228;-89
2023/05/01 08:20:08;;;;;;;6.30;5.70;;;;;;;17.90;49.87;98559.84;7014221;28;20580;-86
2023/05/01 08:23:30;;;;;;;5.57;5.07;;;;;;;18.20;48.91;98555.50;7019281;28;20206;-89
2023/05/01 08:26:51;;;;;;;10.73;5.60;;;;;;;17.57;48.91;98540.97;7018649;28;20232;-89
2023/05/01 08:30:13;;;;;;;6.27;5.50;;;;;;;18.06;49.20;98518.00;6997235;28;20643;-88
2023/05/01 08:33:34;;;;;;;6.00;5.40;;;;;;;18.07;47.28;98478.72;6981600;28;20252;-88
2023/05/01 08:36:59;;;;;;;5.80;5.30;;;;;;;18.59;47.77;98532.38;6981696;28;20360;-89
2023/05/01 08:40:20;;;;;;;5.27;4.77;;;;;;;18.70;47.58;98533.25;6981607;28;20679;-88
2023/05/01 08:43:42;;;;;;;5.23;4.80;;;;;;;18.44;46.75;98485.00;6979746;28;20332;-88
2023/05/01 08:47:11;;;;;;;5.73;5.00;;;;;;;18.84;45.75;98537.16;6980144;28;20268;-88
2023/05/01 08:50:34;;;;;;;5.23;4.83;;;;;;;17.31;49.00;98553.44;6980128;28;20210;-88
2023/05/01 08:53:58;;;;;;;5.47;4.80;;;;;;;17.81;47.74;98517.78;6992322;28;20289;-88
2023/05/01 08:57:20;;;;;;;5.50;5.00;;;;;;;17.92;47.45;98525.78;6980897;28;20293;-88
2023/05/01 09:00:43;;;;;;;8.60;5.30;;;;;;;18.63;47.60;98540.88;6980616;28;20194;-87
2023/05/01 09:04:04;;;;;;;5.50;5.00;;;;;;;18.39;45.23;98534.94;6977306;28;20241;-86
2023/05/01 09:07:26;;;;;;;5.57;4.80;;;;;;;17.85;45.79;98454.25;6980748;28;20779;-87
2023/05/01 09:10:49;;;;;;;5.30;4.87;;;;;;;18.06;46.01;98534.38;6980594;28;20678;-87
2023/05/01 09:14:10;;;;;;;5.47;4.97;;;;;;;18.80;44.79;98544.25;6992464;28;20226;-88
2023/05/01 09:17:32;;;;;;;6.77;4.73;;;;;;;18.34;45.88;98509.53;6991743;28;20202;-88
2023/05/01 09:20:54;;;;;;;5.40;4.90;;;;;;;17.80;46.63;98546.13;6981510;28;20294;-88
2023/05/01 09:24:16;;;;;;;5.10;4.60;;;;;;;18.96;45.80;98543.25;6979859;28;20215;-88
2023/05/01 09:27:39;;;;;;;5.20;4.63;;;;;;;19.40;42.46;98539.13;6975298;28;20388;-89
2023/05/01 09:31:00;;;;;;;5.80;5.30;;;;;;;18.86;46.17;98557.66;6979770;28;20285;-89
2023/05/01 09:34:22;;;;;;;5.93;5.43;;;;;;;18.32;47.16;98522.59;6976970;28;20322;-89
2023/05/01 09:37:49;;;;;;;5.87;5.37;;;;;;;18.92;47.37;98540.22;6975435;28;20226;-89
2023/05/01 09:41:11;;;;;;;5.90;5.40;;;;;;;18.07;48.63;98531.38;6981714;28;20198;-88
2023/05/01 09:44:41;;;;;;;5.87;5.37;;;;;;;18.84;45.96;98553.56;6985708;28;20282;-88
2023/05/01 09:48:13;;;;;;;6.00;5.40;;;;;;;19.35;46.27;98531.69;6980841;28;20299;-89
2023/05/01 09:51:35;;;;;;;7.03;5.50;;;;;;;19.57;46.06;98547.94;6980341;28;20209;-86
2023/05/01 09:55:13;;;;;;;7.23;4.90;;;;;;;20.24;43.94;98504.81;6980323;28;20219;-88
2023/05/01 09:58:35;;;;;;;5.63;5.10;;;;;;;19.88;43.34;98498.47;6979867;28;20199;-85
2023/05/01 10:01:57;;;;;;;7.60;5.50;;;;;;;19.51;44.49;98540.81;6978389;28;20282;-87
2023/05/01 10:05:20;;;;;;;7.30;5.53;;;;;;;19.71;43.70;98528.00;6978336;28;20798;-85
2023/05/01 10:08:46;;;;;;;7.70;5.80;;;;;;;20.65;41.88;98539.31;6979057;28;20217;-88
2023/05/01 10:12:07;;;;;;;6.60;5.93;;;;;;;20.54;41.18;98543.16;6994542;28;20198;-84
2023/05/01 10:15:36;;;;;;;5.70;5.23;;;;;;;19.67;42.92;98506.91;6986698;28;20280;-84
2023/05/01 10:18:59;;;;;;;5.93;5.33;;;;;;;20.93;41.03;98531.31;6983078;28;20194;-86
2023/05/01 10:22:21;;;;;;;6.00;5.40;;;;;;;20.77;41.60;98535.19;6975020;28;20203;-81
2023/05/01 10:25:43;;;;;;;8.37;6.40;;;;;;;20.10;42.30;98536.59;6979502;28;20261;-84
2023/05/01 10:29:05;;;;;;;6.17;5.53;;;;;;;22.22;38.61;98515.31;6979433;28;20268;-84
2023/05/01 10:32:26;;;;;;;6.07;5.57;;;;;;;20.69;41.20;98527.50;6979030;28;20641;-84
2023/05/01 10:35:56;;;;;;;5.57;5.17;;;;;;;21.21;39.59;98497.81;6978432;28;20897;-84
2023/05/01 10:39:30;;;;;;;6.27;5.77;;;;;;;21.29;40.46;98519.13;6973354;28;20224;-84
2023/05/01 10:43:19;;;;;;;6.03;5.53;;;;;;;21.02;40.83;98517.88;6977559;28;20339;-84
2023/05/01 10:46:41;;;;;;;5.70;5.20;;;;;;;21.27;40.14;98519.44;6978005;28;20257;-84
2023/05/01 10:50:04;;;;;;;6.17;5.60;;;;;;;21.40;39.63;98523.50;6978066;28;20348;-84
2023/05/01 10:53:27;;;;;;;6.00;5.50;;;;;;;21.86;39.40;98517.53;6977115;28;20213;-85
2023/05/01 10:56:49;;;;;;;6.17;5.57;;;;;;;21.89;39.06;98511.44;6972794;28;20312;-84
2023/05/01 11:00:17;;;;;;;6.07;5.43;;;;;;;21.82;38.05;98445.06;6978062;28;20358;-85
2023/05/01 11:03:39;;;;;;;6.73;5.30;;;;;;;22.15;39.20;98521.16;6977488;28;20203;-84
2023/05/01 11:07:16;;;;;;;5.37;4.97;;;;;;;21.65;39.14;98512.41;6977278;28;20587;-84
2023/05/01 11:10:39;;;;;;;6.40;5.73;;;;;;;20.84;39.54;98495.41;6977889;28;20204;-85
2023/05/01 11:14:01;;;;;;;7.70;5.80;;;;;;;21.45;40.34;98499.63;6954925;28;20252;-84
2023/05/01 11:17:44;;;;;;;8.33;6.13;;;;;;;21.76;39.69;98492.03;6956734;28;20302;-84
2023/05/01 11:21:07;;;;;;;7.13;6.27;;;;;;;21.94;39.47;98505.91;6977756;28;20296;-84
2023/05/01 11:24:31;;;;;;;6.27;5.67;;;;;;;21.79;37.73;98502.47;6977369;28;20225;-84
2023/05/01 11:27:55;;;;;;;6.80;6.20;;;;;;;22.16;37.64;98500.00;6975533;28;20229;-84
2023/05/01 11:31:18;;;;;;;5.73;5.23;;;;;;;21.94;38.64;98470.22;6985504;28;20297;-84
2023/05/01 11:34:39;;;;;;;6.00;5.40;;;;;;;21.12;40.32;98498.66;6976886;28;20523;-84
2023/05/01 11:38:01;;;;;;;6.93;6.20;;;;;;;21.54;39.16;98492.41;6978075;28;20245;-84
2023/05/01 11:41:23;;;;;;;6.67;6.00;;;;;;;21.57;39.39;98486.38;6978042;28;20216;-84
2023/05/01 11:45:05;;;;;;;6.80;5.90;;;;;;;21.76;39.14;98503.84;6977522;28;20303;-84
2023/05/01 11:48:28;;;;;;;6.37;5.83;;;;;;;21.74;39.13;98491.50;6974726;28;20365;-84
2023/05/01 11:51:56;;;;;;;6.83;5.90;;;;;;;21.51;39.75;98476.53;6978060;28;20693;-84
2023/05/01 11:55:18;;;;;;;6.80;6.13;;;;;;;21.54;39.22;98426.56;6981549;28;20227;-84
2023/05/01 11:58:40;;;;;;;6.70;6.10;;;;;;;22.04;38.00;98492.13;6980108;28;20206;-84
2023/05/01 12:02:03;;;;;;;6.73;6.07;;;;;;;21.84;38.32;98496.94;6976297;28;20203;-83
2023/05/01 12:05:25;;;;;;;6.90;6.20;;;;;;;21.69;38.28;98491.53;6976670;28;20238;-84
2023/05/01 12:08:49;;;;;;;6.37;5.87;;;;;;;21.82;37.77;98490.91;6976317;28;20693;-83
2023/05/01 12:12:11;;;;;;;6.70;6.10;;;;;;;22.24;37.33;98491.16;6975451;28;20221;-83
2023/05/01 12:15:36;;;;;;;6.47;5.87;;;;;;;21.35;39.12;98476.88;6976410;28;20403;-83
2023/05/01 12:18:59;;;;;;;6.47;5.87;;;;;;;22.31;37.97;98491.63;6996207;28;20210;-82
2023/05/01 12:22:21;;;;;;;7.10;6.37;;;;;;;21.68;38.46;98476.19;7007123;28;20217;-84
2023/05/01 12:25:44;;;;;;;7.23;6.50;;;;;;;21.92;37.64;98493.59;6983863;28;20227;-82
2023/05/01 12:29:11;;;;;;;6.23;5.63;;;;;;;21.49;38.57;98486.94;6977200;28;20229;-82
2023/05/01 12:32:33;;;;;;;6.60;6.00;;;;;;;21.94;37.53;98486.72;6978321;28;20208;-82
2023/05/01 12:36:08;;;;;;;8.27;5.63;;;;;;;22.65;36.96;98468.53;6975231;28;20233;-85
2023/05/01 12:39:37;;;;;;;5.97;5.43;;;;;;;22.92;36.79;98478.97;6980492;28;20330;-86
2023/05/01 12:42:58;;;;;;;6.20;5.60;;;;;;;23.04;36.12;98482.94;6976641;28;20657;-84
2023/05/01 12:46:20;;;;;;;6.80;5.63;;;;;;;23.08;35.57;98480.44;6982617;28;20784;-84
2023/05/01 12:49:42;;;;;;;5.90;5.37;;;;;;;22.90;36.19;98471.00;6982844;28;20206;-84
2023/05/01 12:53:05;;;;;;;7.40;6.00;;;;;;;22.94;36.77;98460.22;6981204;28;20240;-84
2023/05/01 12:56:27;;;;;;;6.07;5.47;;;;;;;22.88;35.94;98489.72;6980782;28;20249;-85
2023/05/01 12:59:59;;;;;;;7.33;5.73;;;;;;;22.73;35.62;98478.06;6979213;28;20720;-85
2023/05/01 13:03:24;;;;;;;6.37;5.77;;;;;;;22.62;36.42;98471.88;6980236;28;20245;-85
2023/05/01 13:06:45;;;;;;;5.27;4.87;;;;;;;22.80;35.93;98476.63;6981106;28;20312;-85
2023/05/01 13:10:10;;;;;;;6.00;5.37;;;;;;;23.05;35.23;98437.81;6980112;28;20254;-84
2023/05/01 13:13:34;;;;;;;5.60;5.00;;;;;;;23.46;34.87;98458.22;6979506;28;20333;-86
2023/05/01 13:16:56;;;;;;;5.27;4.83;;;;;;;23.05;35.38;98461.75;6979844;28;20232;-85
2023/05/01 13:20:25;;;;;;;6.30;5.67;;;;;;;23.33;34.91;98472.72;6979823;28;20295;-85
2023/05/01 13:23:53;;;;;;;5.90;5.30;;;;;;;23.08;34.76;98464.72;6978917;28;20219;-85
2023/05/01 13:27:21;;;;;;;5.60;5.03;;;;;;;22.00;36.41;98463.59;6979591;28;20751;-85
2023/05/01 13:30:43;;;;;;;6.13;5.57;;;;;;;21.98;36.09;98468.56;6964063;28;20203;-85
2023/05/01 13:34:04;;;;;;;7.37;5.27;;;;;;;23.22;35.26;98464.88;7003418;28;20269;-85
2023/05/01 13:37:27;;;;;;;5.77;5.27;;;;;;;22.95;35.05;98459.94;6980429;28;20230;-85
2023/05/01 13:40:48;;;;;;;6.23;5.60;;;;;;;22.62;35.32;98449.06;6981018;28;20276;-85
2023/05/01 13:44:11;;;;;;;5.37;4.97;;;;;;;22.48;36.62;98467.34;6979037;28;20311;-85
2023/05/01 13:47:33;;;;;;;5.97;5.47;;;;;;;22.83;36.53;98461.47;6979915;28;20360;-84
2023/05/01 13:50:54;;;;;;;6.27;5.20;;;;;;;22.96;36.46;98467.06;6995242;28;20254;-86
2023/05/01 13:54:16;;;;;;;7.00;5.87;;;;;;;22.55;37.26;98473.31;6980666;28;20398;-84
2023/05/01 13:57:39;;;;;;;6.13;5.53;;;;;;;22.39;36.93;98472.59;6980599;28;20206;-85
2023/05/01 14:01:03;;;;;;;6.07;5.57;;;;;;;22.48;37.34;98467.34;6981051;28;20203;-85
2023/05/01 14:04:24;;;;;;;6.70;6.00;;;;;;;22.54;37.21;98458.75;6975164;28;20237;-85
2023/05/01 14:07:55;;;;;;;6.67;5.97;;;;;;;21.72;37.98;98392.19;6977977;28;20224;-84
2023/05/01 14:11:18;;;;;;;5.73;5.07;;;;;;;22.06;38.53;98473.44;6978957;28;20201;-84
2023/05/01 14:14:46;;;;;;;7.23;5.70;;;;;;;21.63;41.57;98462.47;6977638;28;20234;-85
2023/05/01 14:18:09;;;;;;;6.70;6.10;;;;;;;21.11;40.98;98415.59;6978540;28;20196;-85
2023/05/01 14:21:31;;;;;;;6.67;6.10;;;;;;;21.30;42.18;98472.25;6979542;28;20600;-84
2023/05/01 14:24:52;;;;;;;6.93;6.33;;;;;;;22.10;41.02;98477.25;6978927;28;20701;-84
2023/05/01 14:28:17;;;;;;;6.73;6.00;;;;;;;21.33;40.40;98444.28;6977115;28;20277;-85
2023/05/01 14:31:38;;;;;;;8.53;6.37;;;;;;;21.64;42.13;98473.16;6978877;28;20618;-86
2023/05/01 14:35:02;;;;;;;7.27;6.60;;;;;;;21.88;41.58;98471.38;6986598;28;20271;-87
2023/05/01 14:38:37;;;;;;;6.87;6.27;;;;;;;21.60;41.26;98449.31;6981149;28;20206;-85
2023/05/01 14:42:00;;;;;;;6.53;5.93;;;;;;;21.71;42.62;98468.19;6952363;28;20200;-85
2023/05/01 14:45:21;;;;;;;7.33;6.50;;;;;;;20.85;44.32;98457.88;6950583;28;20315;-86
2023/05/01 14:48:43;;;;;;;7.60;6.90;;;;;;;21.14;45.42;98431.47;6950709;28;20263;-85
2023/05/01 14:52:06;;;;;;;8.53;6.73;;;;;;;21.68;43.43;98465.22;6965548;28;20236;-86
2023/05/01 14:55:29;;;;;;;7.77;6.83;;;;;;;21.80;45.78;98490.38;6955175;28;20226;-86
2023/05/01 14:58:51;;;;;;;7.53;6.87;;;;;;;21.78;43.21;98478.88;6975472;28;20218;-86
2023/05/01 15:02:12;;;;;;;6.60;6.10;;;;;;;21.55;44.92;98457.59;6989722;28;20205;-86
2023/05/01 15:05:37;;;;;;;7.00;6.40;;;;;;;21.70;42.49;98447.34;6970867;28;20323;-85
2023/05/01 15:09:00;;;;;;;7.07;6.43;;;;;;;21.24;41.70;98478.06;6950270;28;20219;-85
2023/05/01 15:12:21;;;;;;;7.40;6.60;;;;;;;21.58;42.47;98481.69;6968959;28;20318;-86
2023/05/01 15:15:43;;;;;;;7.27;6.40;;;;;;;21.91;43.58;98489.22;6973434;28;20537;-85
2023/05/01 15:19:04;;;;;;;9.23;7.03;;;;;;;21.72;44.36;98488.25;6949424;28;20253;-85
2023/05/01 15:22:26;;;;;;;7.70;7.00;;;;;;;21.53;44.27;98501.75;6948505;28;20207;-85
2023/05/01 15:25:49;;;;;;;6.93;6.33;;;;;;;21.39;43.67;98495.25;6949415;28;20365;-85
2023/05/01 15:29:10;;;;;;;6.33;5.83;;;;;;;;;;6963075;28;20595;-85
2023/05/01 15:32:32;;;;;;;6.23;5.70;;;;;;;20.92;43.70;98394.59;6984852;28;20209;-84
2023/05/01 15:35:54;;;;;;;7.20;6.50;;;;;;;21.74;42.76;98495.09;6977559;28;20363;-85
2023/05/01 15:39:15;;;;;;;8.43;6.80;;;;;;;21.82;41.96;98474.44;6981044;28;20211;-85
2023/05/01 15:42:38;;;;;;;9.03;6.60;;;;;;;21.70;42.62;98507.72;6976775;28;20208;-85
2023/05/01 15:46:00;;;;;;;6.80;6.10;;;;;;;21.41;43.34;98494.94;6976781;28;20222;-86
2023/05/01 15:49:21;;;;;;;5.90;5.40;;;;;;;21.58;43.11;98495.41;6964741;28;20268;-85
2023/05/01 15:52:43;;;;;;;6.43;5.93;;;;;;;21.55;43.36;98493.25;6963701;28;20284;-86
2023/05/01 15:56:04;;;;;;;9.47;6.27;;;;;;;21.37;44.23;98478.25;6975048;28;20313;-85